Select your language:
24 hrs Sittard   Hier könnte ihre Werbung stehen!  
  Cat.:   Nazione:   Velocità:   Tipo della categoria:   
Data: 17.01.2026 Send Link
Manifestazione: 3° El Valle Ultra 50K (PAN) Maggiori dettagli sulla corsa.
Distanza: 50km cross, trail Classifica tutti i tempi per questa corsa.
arrivati: 112 (84 M, 28 F) Multiple Finishers.
Parte della classifica: No
Lista dei risultati di: link (Fonte al momento dell'acquisizione.)
Inviato da: Chang, Wenhui     02.05.2026 18:23
 
112 risultati della ricerca 
Pos. Prestazione Cognome, nome Società Naz. Anno M/F Pos. sesso Cat. Pos. Cat. Velocità km/h Prestazione corretto per età
1 5:21:11 h   Bianchi, Gabriel   GUA  1997 M 1 M23  1 9.340 5:21:11 h
2 5:47:13 h   do Nascimento Ferreira Junior, Ademar   BRA  1975 M 2 M50  1 8.640 5:09:48 h
3 6:02:07 h   Rivera Alape, Johan Sebastian   COL  1998 M 3 M23  2 8.285 6:02:07 h
4 6:08:39 h   Guezou, Bastien   FRA  1988 M 4 M35  1 8.138 6:03:52 h
4 6:08:39 h   Gomez, Paul   ECU  1988 M 4 M35  1 8.138 6:03:52 h
6 6:21:48 h   Alvarado, Gabriel   PAN  2000 M 6 M23  3 7.858 6:21:48 h
7 6:46:42 h   Bontemps, Damien   FRA  1986 M 7 M35  3 7.376 6:37:02 h
8 6:49:33 h   Arias Arias, Cesar Augusto   ECU  2003 M 8 MU23  1 7.325 6:49:33 h
9 6:51:17 h   Rodriguez Reyes, Isaias   PAN  1996 M 9 M23  4 7.294 6:51:17 h
10 6:54:26 h   Martinez Castano, Leidy Johana   COL  1985 F 1 W40  1 7.239 6:44:35 h
11 6:58:37 h   Torres, Maxwell   COL  2002 M 10 M23  5 7.166 6:58:37 h
12 7:13:47 h   Vega, Gerardo   PAN  1992 M 11 M23  6 6.916 7:13:16 h
13 7:16:34 h   Ramos, Justo   PAN  1994 M 12 M23  7 6.872 7:16:34 h
14 7:18:08 h   Quesada Guerrero, Juan Pablo   CRC    M 13 #NA    6.847 7:18:08 h
15 7:19:42 h   Urena Rojas, Roger   PAN  1985 M 14 M40  1 6.823 7:06:20 h
16 7:26:32 h   Nunez, Ramses   PAN  1992 M 15 M23  8 6.718 7:26:00 h
17 7:29:08 h   Mandarakas, Chemi   PAN  1972 M 16 M50  2 6.680 6:30:16 h
18 7:33:06 h   Chacon, Felix   PAN  1978 M 17 M45  1 6.621 6:54:52 h
19 7:34:01 h   Costarangos, Monica   PAN  1993 F 2 W23  1 6.608 7:33:59 h
20 7:38:37 h   Cordon, Mario   PAN  1985 M 18 M40  2 6.541 7:24:41 h
21 7:38:39 h   Pomares, Crescencio   PAN  1993 M 19 M23  9 6.541 7:38:34 h
22 7:41:26 h   Solano Mendez, Luis Felipe   COL  1983 M 20 M40  3 6.501 7:20:27 h
23 7:44:26 h   Baldion, Carlos   COL  1994 M 21 M23  10 6.459 7:44:26 h
24 7:45:07 h   Correa, Carlos   VEN  1990 M 22 M35  4 6.450 7:42:34 h
25 7:45:17 h   Castillo, Franklin   PAN  1984 M 23 M40  4 6.448 7:27:45 h
26 7:55:52 h   Mendoza, Carmen   PAN  1985 F 3 W40  2 6.304 7:44:33 h
27 7:59:08 h   Montesdeoca, Jaime   ECU  1995 M 24 M23  11 6.261 7:59:08 h
28 8:00:29 h   Gonzalez Macias, Alexander   PAN  1991 M 25 M23  12 6.244 7:59:06 h
29 8:00:42 h   Mata, Cristina   PAN  1986 F 4 W35  1 6.241 7:51:49 h
30 8:04:55 h   Patino Suasty, Oscar   PAN  1986 M 26 M35  5 6.187 7:53:23 h
31 8:07:21 h   Batista, Manuel   PAN  1996 M 27 M23  13 6.156 8:07:21 h
32 8:12:55 h   Ajcabul, Alejandro   GUA  2000 M 28 M23  14 6.086 8:12:55 h
33 8:16:17 h   Mini, Constanza   ITA  1975 F 5 W50  1 6.045 7:20:19 h
34 8:16:20 h   Lemma, Emmanuel   ARG  1983 M 29 M40  5 6.044 7:53:46 h
35 8:20:46 h   Gutierrez, Fermin   PAN  1979 M 30 M45  2 5.991 7:42:25 h
36 8:25:56 h   Aleman, Estefania   PAN  1988 F 6 W35  2 5.930 8:20:59 h
37 8:30:22 h   Serrano Fernandez, Wendy   COL  1995 F 7 W23  2 5.878 8:30:22 h
38 8:30:36 h   Caballero, Rodrigo   PAN  1993 M 31 M23  15 5.875 8:30:30 h
39 8:30:56 h   Rodriguez Medrano, Jonathan   PAN  1987 M 32 M35  6 5.872 8:21:45 h
40 8:31:40 h   Morales Mora, Yan Carlos   CRC    M 33 #NA    5.863 8:31:40 h
41 8:37:11 h   Sanchez, Juan Luis   PAN    M 34 #NA    5.801 8:37:11 h
42 8:37:35 h   Ratner, Camila   ARG  1995 F 8 W23  3 5.796 8:37:35 h
43 8:39:08 h   Estribi, Giselle Paola   PAN  1986 F 9 W35  3 5.779 8:29:32 h
44 8:39:10 h   Agrazal, Alberto   PAN  1991 M 35 M23  16 5.778 8:37:40 h
45 8:41:16 h   Monge Mora, Sonia   CRC  1989 F 10 W35  4 5.755 8:37:53 h
46 8:44:52 h   Diaz, Jorge   PAN  1975 M 36 M50  3 5.716 7:48:18 h
47 8:47:41 h   Barria, Angel   PAN  1991 M 37 M23  17 5.685 8:46:10 h
48 8:49:15 h   Cortes Santos, Ovidio   PAN  1976 M 38 M45  3 5.668 7:56:20 h
49 8:50:04 h   Ortega, Carlos   PAN  1979 M 39 M45  4 5.660 8:09:28 h
50 8:50:45 h   Gonzalez Batista, Pedro Valentin   PAN  1970 M 40 M55  1 5.652 7:32:54 h
51 8:51:05 h   Gillespie, Jonathan   NZL  1981 M 41 M40  6 5.649 8:18:39 h
52 8:52:06 h   Camargo Montero, Thelma   PAN  1979 F 11 W45  1 5.638 8:14:55 h
53 8:54:19 h   Hernandez Rojas, Jenny   PAN  1987 F 12 W35  5 5.615 8:46:57 h
54 8:56:04 h   Machado, Adrian   VEN  1990 M 42 M35  7 5.596 8:53:08 h
55 8:59:13 h   Londono Salinas, Alexandra   PAN  1989 F 13 W35  6 5.564 8:55:43 h
56 9:00:16 h   Escudero, Ivan   PAN  1976 M 43 M45  5 5.553 8:06:15 h
57 9:02:02 h   Castellanos, Daniel   PAN  1987 M 44 M35  8 5.535 8:52:17 h
58 9:05:25 h   Santana Ceballos, Victor Alejandro   VEN  1994 M 45 M23  18 5.500 9:05:25 h
59 9:06:16 h   Salinas Pinto, Andrea Paz   CHI  1981 F 14 W40  3 5.492 8:37:59 h
60 9:07:10 h   Barria, Jose   PAN  1976 M 46 M45  6 5.483 8:12:27 h
61 9:07:37 h   Baker, Phillip   COL  1961 M 47 M60  1 5.478 7:08:57 h
62 9:11:13 h   Gonzalez, Leython   PAN  1997 M 48 M23  19 5.443 9:11:13 h
63 9:11:55 h   Alejandra, Llanos   COL  1987 F 15 W35  7 5.436 9:04:19 h
64 9:14:51 h   Pitti Ortiz, Maximo   PAN  1977 M 49 M45  7 5.407 8:23:42 h
65 9:17:41 h   Bennett, Irving   PAN  1961 M 50 M60  2 5.379 7:16:51 h
66 9:19:56 h   Torrens Marin, Guillem   PAN  1980 M 51 M45  8 5.358 8:41:22 h
67 9:26:30 h   Welling, Brandon   USA  1983 M 52 M40  7 5.296 9:00:44 h
68 9:27:29 h   Rodriguez Rivas, Fidel   PAN  1981 M 53 M40  8 5.286 8:52:49 h
69 9:27:59 h   Ramirez, Douglas   VEN  1981 M 54 M40  9 5.282 8:53:17 h
70 9:33:22 h   Quintero, Danny   PAN  1973 M 55 M50  4 5.232 8:22:41 h
71 9:33:56 h   de la Cruz, Ezequiel Enrique   PAN  1986 M 56 M35  9 5.227 9:20:17 h
72 9:34:43 h   Aparicio, Ovett   PAN  1992 M 57 M23  20 5.220 9:34:02 h
73 9:36:10 h   Brown Ortega, Gil Ernesto   PAN  1994 M 58 M23  21 5.207 9:36:10 h
74 9:36:47 h   Corrales Gonzalez, Dionisio   PAN  1970 M 59 M55  2 5.201 8:12:11 h
75 9:37:12 h   Viljoen, Adam   GBR  1972 M 60 M50  5 5.198 8:21:32 h
76 9:39:17 h   Alvarado, Rocio   GUA  1980 F 16 W45  2 5.179 9:04:15 h
77 9:40:32 h   Espinosa, Ana Lia   PAN  1978 F 17 W45  3 5.168 8:54:06 h
78 9:44:53 h   Grajales, Evelyn Angelin   PAN    F 18 #NA    5.129 9:44:53 h
79 9:48:11 h   Zhang, Wenke   PAN  1987 M 61 M35  10 5.100 9:37:36 h
80 9:48:43 h   Davis, Frank   PAN  1992 M 62 M23  22 5.096 9:48:01 h
81 9:53:34 h   Terreros, Leyda   PAN  1987 F 19 W35  8 5.054 9:45:23 h
82 9:54:47 h   Munoz, Andres   PAN  1975 M 63 M50  6 5.044 8:50:40 h
83 9:56:19 h   Rodriguez, Jimmy   COL  1981 M 64 M40  10 5.031 9:19:53 h
84 9:57:22 h   Rodriguez, Ormelis   PAN  1972 M 65 M50  7 5.022 8:39:04 h
85 9:58:10 h   Rodriguez, Jose Luis   PAN  1993 M 66 M23  23 5.015 9:58:03 h
86 9:59:04 h   Carrizo, Jose   PAN  2004 M 67 MU23  2 5.008 9:59:04 h
87 9:59:21 h   Delgado, Jose   VEN  1987 M 68 M35  11 5.005 9:48:34 h
88 10:02:59 h   Machado Zamora, Juan Carlos   COL  1985 M 69 M40  11 4.975 9:44:40 h
89 10:07:32 h   de la Rosa Lasa, David Enrique   PAN  1999 M 70 M23  24 4.938 10:07:32 h
90 10:09:23 h   Rodriguez, Maycol   PAN  1997 M 71 M23  25 4.923 10:09:23 h
91 10:09:40 h   Cabassa, Pia Gabriela   PAN  1993 F 20 W23  4 4.921 10:09:37 h
92 10:09:42 h   Rodriguez Zurita, Jaselski Janneth   PAN  1989 F 21 W35  9 4.920 10:05:45 h
93 10:10:09 h   Lang, Katrina   USA  1990 F 22 W35  10 4.917 10:07:47 h
94 10:16:01 h   Souhami, Amandine   FRA  1987 F 23 W35  11 4.870 10:07:31 h
95 10:17:11 h   Callejas, Gabriel   PAN  1996 M 72 M23  26 4.861 10:17:11 h
96 10:17:26 h   Orozco Arias, Sebastian   ECU  1999 M 73 M23  27 4.859 10:17:26 h
97 10:18:12 h   Valdes, Ivan   PAN  1987 M 74 M35  12 4.853 10:07:05 h
98 10:25:02 h   Munoz Prados, Yaslin Michell   PAN  1990 F 24 W35  12 4.800 10:22:36 h
99 10:26:32 h   Galeano, Llansy   PAN    F 25 #NA    4.788 10:26:32 h
100 10:28:54 h   Tejeira de Bennett, Isabel   PAN  1968 F 26 W55  1 4.770 8:29:17 h
101 10:31:06 h   Lao, Jose   PAN  1978 M 75 M45  9 4.754 9:37:51 h
102 10:32:43 h   Xiao, Kaitao   CHN  1992 M 76 M23  28 4.741 10:31:58 h
103 10:34:02 h   Montecer, Manuel   PAN  1971 M 77 M50  8 4.732 9:05:58 h
104 10:34:14 h   Cherigo, Katherine   PAN  1995 F 27 W23  5 4.730 10:34:14 h
104 10:34:14 h   Carcamo, Jonathan   PAN  2000 M 78 M23  29 4.730 10:34:14 h
106 10:36:37 h   Aizprua, Jocelyn   PAN  1989 F 28 W35  13 4.712 10:32:29 h
107 10:39:14 h   Monterroso Sapon, Jose David   GUA    M 79 #NA    4.693 10:39:14 h
108 10:51:49 h   Palma Tello, Benhur Alejandro   PAN    M 80 #NA    4.603 10:51:49 h
109 10:54:33 h   Torres Cerrato, Omar   HON  1981 M 81 M40  12 4.583 10:14:34 h
110 10:54:40 h   Malek, Enrique   PAN  1985 M 82 M40  13 4.582 10:34:46 h
111 10:56:31 h   Dominguez, Videl   PAN  1994 M 83 M23  30 4.570 10:56:31 h
112 10:56:58 h   de Leon Aguilar, Mario   PAN  1990 M 84 M35  13 4.566 10:53:22 h